Time;durP1;ratioP1;P1;durP2;ratioP2;P2;SDS_P1;SDS_P2;PMS_P1;PMS_P2;Temp;Humidity;BMP_temperature;BMP_pressure;BME280_temperature;BME280_humidity;BME280_pressure;Samples;Min_cycle;Max_cycle;Signal;HPM_P1;HPM_P2
2024/04/25 00:02:24;;;;;;;8.40;5.20;;;;;;;13.16;63.81;99467.73;105050;1262;61457;-63
2024/04/25 00:04:52;;;;;;;8.90;5.10;;;;;;;13.07;63.68;99466.88;104819;1262;62659;-61
2024/04/25 00:07:19;;;;;;;7.20;5.00;;;;;;;13.06;63.73;99465.10;104749;1262;60494;-61
2024/04/25 00:09:47;;;;;;;7.60;1.90;;;;;;;13.07;63.64;99462.03;104837;1262;60364;-62
2024/04/25 00:12:14;;;;;;;10.50;5.30;;;;;;;13.09;63.63;99470.30;104883;1262;64999;-63
2024/04/25 00:14:42;;;;;;;7.40;4.30;;;;;;;13.09;63.74;99470.10;105842;1262;60466;-62
2024/04/25 00:17:10;;;;;;;8.00;4.60;;;;;;;13.09;63.78;99466.92;104807;1261;63772;-62
2024/04/25 00:19:37;;;;;;;8.40;5.10;;;;;;;13.06;63.94;99464.81;104736;1261;60553;-62
2024/04/25 00:22:05;;;;;;;8.00;5.80;;;;;;;13.03;64.02;99468.60;104852;1262;60370;-62
2024/04/25 00:24:32;;;;;;;8.70;5.50;;;;;;;12.99;64.05;99478.48;105167;1259;63727;-63
2024/04/25 00:27:00;;;;;;;8.30;5.60;;;;;;;12.96;64.29;99481.68;104788;1261;61285;-64
2024/04/25 00:29:27;;;;;;;8.00;4.70;;;;;;;12.98;64.36;99480.23;105110;1262;63759;-62
2024/04/25 00:31:55;;;;;;;9.00;5.20;;;;;;;13.00;64.32;99475.58;104878;1261;60448;-66
2024/04/25 00:34:22;;;;;;;9.60;5.60;;;;;;;12.99;64.39;99474.45;104891;1257;60509;-67
2024/04/25 00:36:50;;;;;;;7.70;4.90;;;;;;;12.99;64.47;99483.60;104661;1264;64919;-66
2024/04/25 00:39:17;;;;;;;7.70;5.10;;;;;;;12.98;64.85;99495.19;105618;1260;61576;-66
2024/04/25 00:41:45;;;;;;;7.50;4.80;;;;;;;12.94;64.97;99498.21;104881;1260;63758;-66
2024/04/25 00:44:12;;;;;;;7.90;4.40;;;;;;;12.93;65.01;99498.83;104859;1262;60427;-67
2024/04/25 00:46:40;;;;;;;8.60;4.10;;;;;;;12.94;64.88;99499.48;104771;1258;60509;-67
2024/04/25 00:49:08;;;;;;;7.10;4.40;;;;;;;12.93;65.01;99493.77;104981;1262;64965;-66
2024/04/25 00:51:36;;;;;;;9.20;5.60;;;;;;;12.91;64.89;99498.88;104792;1259;60603;-66
2024/04/25 00:54:04;;;;;;;7.90;5.00;;;;;;;12.85;64.85;99505.33;105951;1262;72623;-65
2024/04/25 00:56:31;;;;;;;8.70;5.70;;;;;;;12.83;65.00;99510.41;105333;1263;60629;-66
2024/04/25 00:58:59;;;;;;;5.00;1.70;;;;;;;12.82;65.06;99505.58;104609;1262;60604;-66
2024/04/25 01:01:26;;;;;;;8.60;4.90;;;;;;;12.80;64.96;99503.90;104707;1257;63779;-66
2024/04/25 01:03:59;;;;;;;10.70;4.40;;;;;;;12.80;64.94;99502.65;107812;1262;60584;-66
2024/04/25 01:06:31;;;;;;;6.30;3.90;;;;;;;12.80;64.71;99502.67;104707;1262;62481;-67
2024/04/25 01:08:59;;;;;;;7.20;3.50;;;;;;;12.75;64.59;99505.11;104652;1274;61366;-67
2024/04/25 01:11:28;;;;;;;9.10;4.40;;;;;;;12.70;64.58;99509.88;105055;1263;61362;-67
2024/04/25 01:13:56;;;;;;;7.20;3.80;;;;;;;12.63;64.43;99514.73;105862;1266;65689;-66
2024/04/25 01:16:24;;;;;;;7.40;4.30;;;;;;;12.57;64.27;99515.23;105833;1263;61377;-68
2024/04/25 01:18:51;;;;;;;7.60;5.00;;;;;;;12.50;64.27;99521.16;105887;1257;62617;-64
2024/04/25 01:21:19;;;;;;;5.20;1.50;;;;;;;12.48;63.90;99522.45;105656;1259;61391;-67
2024/04/25 01:23:46;;;;;;;12.00;4.80;;;;;;;12.49;63.80;99524.36;105963;1258;61463;-67
2024/04/25 01:26:14;;;;;;;8.10;4.90;;;;;;;12.51;63.66;99522.39;105755;1263;64993;-67
2024/04/25 01:28:42;;;;;;;8.60;5.20;;;;;;;12.50;63.81;99524.59;105897;1257;61384;-68
2024/04/25 01:31:09;;;;;;;8.20;4.70;;;;;;;12.45;63.97;99522.02;106039;1262;64317;-67
2024/04/25 01:33:37;;;;;;;5.80;2.10;;;;;;;12.43;64.27;99523.86;105962;1259;61270;-66
2024/04/25 01:36:05;;;;;;;6.70;4.60;;;;;;;12.42;64.24;99527.95;105992;1257;61437;-66
2024/04/25 01:38:32;;;;;;;7.60;4.90;;;;;;;12.40;64.26;99531.65;105181;1263;65802;-66
2024/04/25 01:41:00;;;;;;;7.50;4.20;;;;;;;12.41;63.85;99532.69;104748;1271;61269;-66
2024/04/25 01:43:27;;;;;;;7.90;4.90;;;;;;;12.39;63.60;99531.33;104681;1273;63773;-66
2024/04/25 01:45:55;;;;;;;8.40;5.00;;;;;;;12.38;63.55;99531.71;105315;1264;61234;-66
2024/04/25 01:48:22;;;;;;;9.90;4.90;;;;;;;12.38;63.64;99531.39;104846;1262;61644;-67
2024/04/25 01:50:51;;;;;;;8.20;4.90;;;;;;;12.36;63.60;99529.48;104797;1259;64460;-64
2024/04/25 01:53:19;;;;;;;7.50;4.40;;;;;;;12.33;63.53;99527.46;106359;1259;61413;-65
2024/04/25 01:55:46;;;;;;;8.00;4.70;;;;;;;12.27;63.35;99527.76;104987;1266;64387;-64
2024/04/25 01:58:14;;;;;;;7.80;4.10;;;;;;;12.19;63.29;99532.27;104853;1257;61271;-66
2024/04/25 02:00:41;;;;;;;6.10;3.50;;;;;;;12.14;63.08;99533.95;105041;1262;61250;-62
2024/04/25 02:03:09;;;;;;;4.50;1.70;;;;;;;12.12;63.02;99543.36;104717;1261;65644;-67
2024/04/25 02:05:36;;;;;;;8.10;4.00;;;;;;;12.09;63.11;99548.23;104630;1263;61346;-66
2024/04/25 02:08:06;;;;;;;6.60;4.00;;;;;;;12.11;63.09;99549.73;104900;1262;62434;-65
2024/04/25 02:10:33;;;;;;;4.20;2.00;;;;;;;12.10;62.88;99546.29;105080;1256;61286;-66
2024/04/25 02:13:01;;;;;;;7.20;4.50;;;;;;;12.06;62.94;99546.39;104822;1258;61189;-66
2024/04/25 02:15:29;;;;;;;7.30;4.50;;;;;;;11.99;62.95;99555.36;104719;1264;65766;-67
2024/04/25 02:17:56;;;;;;;6.40;3.00;;;;;;;11.93;63.07;99558.75;105911;1258;61364;-66
2024/04/25 02:26:04;;;;;;;3.20;0.70;;;;;;;11.79;62.84;99574.30;105925;1263;61804;-65
2024/04/25 02:28:32;;;;;;;6.50;2.60;;;;;;;11.76;62.68;99577.96;105860;1262;66239;-66
2024/04/25 02:31:00;;;;;;;2.90;0.80;;;;;;;11.75;62.92;99579.11;105773;1261;61592;-64
2024/04/25 02:33:27;;;;;;;6.80;2.90;;;;;;;11.73;62.97;99575.20;105805;1259;64135;-67
2024/04/25 02:35:55;;;;;;;8.20;3.20;;;;;;;11.68;63.00;99572.69;106038;1258;61360;-67
2024/04/25 02:38:23;;;;;;;5.90;3.30;;;;;;;11.66;63.07;99568.70;105931;1261;61181;-67
2024/04/25 02:40:50;;;;;;;4.00;1.10;;;;;;;11.63;63.04;99567.77;105861;1262;64581;-68
2024/04/25 02:43:17;;;;;;;5.20;2.70;;;;;;;11.58;62.97;99564.79;105978;1260;61184;-67
2024/04/25 02:45:45;;;;;;;3.20;0.80;;;;;;;11.51;63.10;99562.80;105937;1262;63788;-68
2024/04/25 02:48:12;;;;;;;5.90;2.80;;;;;;;11.51;63.16;99564.02;105929;1262;61421;-67
2024/04/25 02:50:40;;;;;;;6.10;3.20;;;;;;;11.56;63.15;99565.32;105797;1257;61377;-67
2024/04/25 02:53:07;;;;;;;11.60;4.30;;;;;;;11.59;63.30;99561.49;105930;1261;66372;-68
2024/04/25 02:55:35;;;;;;;8.90;4.80;;;;;;;11.62;63.66;99566.80;105861;1262;61974;-67
2024/04/25 02:58:02;;;;;;;4.30;1.60;;;;;;;11.65;63.74;99574.73;105861;1257;63721;-67
2024/04/25 03:00:30;;;;;;;15.90;4.70;;;;;;;11.64;64.07;99583.61;105010;1257;61280;-69
2024/04/25 03:02:57;;;;;;;11.90;4.60;;;;;;;11.60;64.22;99589.98;105872;1263;61120;-67
2024/04/25 03:05:25;;;;;;;8.90;4.60;;;;;;;11.59;64.25;99587.52;105951;1258;64461;-67
2024/04/25 03:07:53;;;;;;;6.40;3.30;;;;;;;11.62;64.26;99588.11;105901;1258;61050;-56
2024/04/25 03:10:20;;;;;;;6.70;3.60;;;;;;;11.66;64.37;99592.96;104734;1263;63771;-65
2024/04/25 03:12:49;;;;;;;5.20;3.50;;;;;;;11.72;64.50;99588.00;108022;1263;59804;-66
2024/04/25 03:15:16;;;;;;;6.20;3.80;;;;;;;11.77;64.47;99589.64;105891;1263;61324;-65
2024/04/25 03:17:44;;;;;;;5.60;3.60;;;;;;;11.78;64.41;99585.76;106021;1257;64463;-69
2024/04/25 03:20:12;;;;;;;6.80;3.70;;;;;;;11.81;64.43;99583.59;105949;1263;61226;-67
2024/04/25 03:22:40;;;;;;;5.80;3.70;;;;;;;11.82;64.39;99577.33;105993;1259;63806;-66
2024/04/25 03:25:07;;;;;;;6.30;3.60;;;;;;;11.84;64.21;99576.63;105334;1261;61419;-55
2024/04/25 03:27:38;;;;;;;6.00;3.50;;;;;;;11.89;63.96;99581.45;104819;1261;61362;-55
2024/04/25 03:30:06;;;;;;;3.70;1.50;;;;;;;11.94;63.69;99578.79;105734;1261;65834;-68
2024/04/25 03:32:34;;;;;;;6.30;4.10;;;;;;;12.01;63.75;99576.02;105265;1258;61243;-66
2024/04/25 03:35:02;;;;;;;6.60;4.40;;;;;;;12.06;63.66;99569.17;104620;1263;62480;-63
2024/04/25 03:37:29;;;;;;;8.70;4.80;;;;;;;12.10;63.75;99573.09;104791;1259;61289;-57
2024/04/25 03:39:57;;;;;;;5.70;2.00;;;;;;;12.12;63.91;99579.87;106259;1257;61411;-55
2024/04/25 03:42:25;;;;;;;7.20;4.80;;;;;;;12.16;63.98;99581.27;105371;1260;64497;-56
2024/04/25 03:44:52;;;;;;;9.00;4.70;;;;;;;12.19;64.16;99579.49;104731;1263;61874;-54
2024/04/25 03:47:22;;;;;;;6.60;4.40;;;;;;;12.27;64.20;99580.34;104723;1260;64350;-54
2024/04/25 03:49:50;;;;;;;8.30;4.80;;;;;;;12.36;64.30;99573.41;104799;1264;61445;-56
2024/04/25 03:52:18;;;;;;;9.10;4.20;;;;;;;12.45;64.16;99573.05;104836;1262;61948;-55
2024/04/25 03:54:46;;;;;;;8.90;5.10;;;;;;;12.52;64.21;99574.17;104787;1257;64432;-60
2024/04/25 03:57:14;;;;;;;8.00;4.70;;;;;;;12.57;64.33;99578.21;105688;1261;61449;-58
2024/04/25 03:59:42;;;;;;;9.80;6.00;;;;;;;12.63;64.34;99585.16;106453;1260;63712;-56
2024/04/25 04:02:10;;;;;;;8.50;5.20;;;;;;;12.67;64.49;99584.96;104656;1263;61402;-54
2024/04/25 04:04:38;;;;;;;12.40;5.60;;;;;;;12.74;64.49;99588.57;105070;1257;61328;-56
2024/04/25 04:07:05;;;;;;;8.10;4.90;;;;;;;12.88;64.68;99599.50;105303;1260;64550;-56
2024/04/25 04:09:33;;;;;;;8.80;5.70;;;;;;;13.04;65.02;99602.67;104572;1262;61331;-56
2024/04/25 04:12:02;;;;;;;7.80;4.80;;;;;;;13.18;65.30;99606.52;104752;1263;72842;-55
2024/04/25 04:14:29;;;;;;;8.80;6.00;;;;;;;13.27;65.40;99607.70;105145;1264;61381;-55
2024/04/25 04:16:57;;;;;;;8.30;5.50;;;;;;;13.35;65.50;99606.51;105168;1257;63644;-64
2024/04/25 04:19:29;;;;;;;8.20;4.80;;;;;;;13.41;65.45;99610.63;105342;1260;66073;-65
2024/04/25 04:21:58;;;;;;;8.00;5.10;;;;;;;13.49;65.13;99612.50;106076;1263;64418;-65
2024/04/25 04:24:27;;;;;;;9.40;5.30;;;;;;;13.58;65.26;99617.58;106956;1261;63729;-67
2024/04/25 04:26:58;;;;;;;8.80;5.70;;;;;;;13.67;65.32;99621.90;105681;1260;61232;-65
2024/04/25 04:29:26;;;;;;;10.20;6.40;;;;;;;13.74;65.46;99622.91;105008;1258;61373;-68
2024/04/25 04:31:54;;;;;;;8.40;5.20;;;;;;;13.81;65.53;99623.59;105199;1257;64596;-69
2024/04/25 04:34:23;;;;;;;7.90;5.00;;;;;;;13.88;65.60;99616.65;105672;1257;61436;-58
2024/04/25 04:36:51;;;;;;;8.00;5.10;;;;;;;14.00;65.56;99615.62;106025;1262;67696;-68
2024/04/25 04:39:21;;;;;;;11.40;5.80;;;;;;;14.13;65.66;99617.94;104739;1263;61424;-63
2024/04/25 04:41:49;;;;;;;10.70;5.10;;;;;;;14.26;65.43;99616.88;104789;1257;61489;-65
2024/04/25 04:44:16;;;;;;;14.40;6.20;;;;;;;14.35;65.17;99616.83;104761;1262;68832;-61
2024/04/25 04:46:44;;;;;;;11.60;6.60;;;;;;;14.44;65.19;99622.54;105505;1258;61388;-59
2024/04/25 04:49:12;;;;;;;7.70;5.20;;;;;;;14.47;65.12;99624.67;104612;1260;63731;-61
2024/04/25 04:51:40;;;;;;;8.30;4.70;;;;;;;14.51;65.31;99625.80;104792;1264;61295;-60
2024/04/25 04:54:09;;;;;;;9.20;5.00;;;;;;;14.60;64.99;99628.49;104655;1257;61358;-63
2024/04/25 04:56:36;;;;;;;7.40;4.50;;;;;;;14.72;64.85;99634.69;106613;1257;64557;-59
2024/04/25 04:59:05;;;;;;;8.00;4.80;;;;;;;14.82;64.77;99642.26;104761;1257;72268;-58
2024/04/25 05:01:34;;;;;;;10.80;5.80;;;;;;;14.89;64.97;99644.85;104709;1261;64438;-64
2024/04/25 05:04:01;;;;;;;10.30;6.00;;;;;;;14.95;65.30;99646.23;104701;1264;61249;-59
2024/04/25 05:06:29;;;;;;;8.70;5.00;;;;;;;15.00;65.57;99645.39;104611;1257;61320;-61
2024/04/25 05:08:57;;;;;;;9.40;5.10;;;;;;;15.05;65.52;99651.33;104595;1257;64570;-58
2024/04/25 05:11:25;;;;;;;12.80;5.70;;;;;;;15.11;65.26;99654.80;108745;1257;72620;-60
2024/04/25 05:13:52;;;;;;;8.50;4.90;;;;;;;15.17;65.51;99653.75;108769;1258;75346;-59
2024/04/25 05:16:20;;;;;;;8.80;5.70;;;;;;;15.24;65.45;99645.38;108744;1257;59217;-58
2024/04/25 05:18:47;;;;;;;9.90;5.50;;;;;;;15.32;65.62;99645.25;108817;1257;62253;-62
2024/04/25 05:21:15;;;;;;;9.60;5.90;;;;;;;15.37;65.64;99649.42;108149;1263;66098;-62
2024/04/25 05:23:42;;;;;;;10.70;6.30;;;;;;;15.43;65.86;99652.30;104845;1257;61639;-62
2024/04/25 05:26:13;;;;;;;9.00;6.00;;;;;;;15.46;65.91;99652.45;104904;1260;64180;-56
2024/04/25 05:28:41;;;;;;;12.70;5.90;;;;;;;15.48;65.70;99647.75;104894;1257;61262;-58
2024/04/25 05:31:08;;;;;;;10.20;5.70;;;;;;;15.51;65.71;99643.08;106909;1257;61376;-56
2024/04/25 05:33:36;;;;;;;10.10;5.90;;;;;;;15.54;65.65;99639.71;105890;1259;66903;-58
2024/04/25 05:36:05;;;;;;;7.90;5.30;;;;;;;15.60;65.65;99639.02;105565;1253;61531;-69
2024/04/25 05:38:33;;;;;;;9.20;5.60;;;;;;;15.66;65.98;99639.45;105546;1261;64057;-57
2024/04/25 05:41:02;;;;;;;9.80;5.60;;;;;;;15.73;66.09;99638.86;105093;1254;61280;-66
2024/04/25 05:43:30;;;;;;;10.10;5.90;;;;;;;15.79;65.97;99631.64;107771;1254;61408;-66
2024/04/25 05:45:58;;;;;;;11.30;5.80;;;;;;;15.87;65.84;99629.20;106373;1254;73251;-64
2024/04/25 05:48:31;;;;;;;7.90;4.50;;;;;;;15.94;65.73;99630.14;105761;1253;61842;-63
2024/04/25 05:51:02;;;;;;;12.10;5.50;;;;;;;16.04;65.48;99630.56;105546;1260;74188;-66
2024/04/25 05:53:30;;;;;;;9.60;4.60;;;;;;;16.13;65.56;99635.01;105553;1253;61347;-65
2024/04/25 05:55:57;;;;;;;10.50;6.10;;;;;;;16.19;65.37;99638.09;105139;1256;62255;-66
2024/04/25 05:58:27;;;;;;;9.40;5.90;;;;;;;16.21;65.13;99640.50;105149;1254;76888;-69
2024/04/25 06:00:54;;;;;;;9.00;5.00;;;;;;;16.23;64.81;99637.95;105024;1259;72408;-65
2024/04/25 06:03:22;;;;;;;9.30;4.90;;;;;;;16.29;64.66;99638.15;105079;1259;66141;-66
2024/04/25 06:05:50;;;;;;;10.10;5.50;;;;;;;16.35;64.35;99639.39;105909;1254;63844;-65
2024/04/25 06:08:18;;;;;;;8.60;4.40;;;;;;;16.42;64.16;99642.59;105842;1253;61295;-66
2024/04/25 06:10:45;;;;;;;10.20;4.80;;;;;;;16.46;64.13;99646.90;105163;1255;67961;-61
2024/04/25 06:13:13;;;;;;;8.30;4.90;;;;;;;16.51;63.90;99656.63;106605;1256;72672;-63
2024/04/25 06:15:41;;;;;;;10.10;5.30;;;;;;;16.52;64.12;99658.40;105860;1254;64802;-66
2024/04/25 06:18:12;;;;;;;7.60;4.50;;;;;;;16.59;63.96;99658.13;105077;1254;61356;-66
2024/04/25 06:20:40;;;;;;;8.30;4.70;;;;;;;16.68;63.53;99652.11;105363;1258;62327;-64
2024/04/25 06:23:08;;;;;;;7.80;4.80;;;;;;;16.78;63.51;99655.59;105212;1253;69043;-65
2024/04/25 06:25:36;;;;;;;10.00;5.20;;;;;;;16.85;63.18;99656.06;105536;1254;70188;-69
2024/04/25 06:28:05;;;;;;;9.70;4.30;;;;;;;16.88;62.86;99655.58;106054;1254;62613;-67
2024/04/25 06:30:33;;;;;;;9.40;5.20;;;;;;;16.90;62.77;99659.20;105911;1254;63911;-57
2024/04/25 06:33:01;;;;;;;9.30;4.40;;;;;;;16.95;62.67;99660.19;105177;1254;60358;-56
2024/04/25 06:35:29;;;;;;;9.90;4.80;;;;;;;17.01;62.46;99655.38;105112;1258;77025;-68
2024/04/25 06:37:57;;;;;;;13.20;5.10;;;;;;;17.09;62.42;99654.95;106606;1254;73227;-68
2024/04/25 06:40:24;;;;;;;9.20;4.60;;;;;;;17.15;62.38;99651.39;106060;1256;73237;-69
2024/04/25 06:42:52;;;;;;;7.30;4.60;;;;;;;17.19;62.07;99651.65;106031;1254;61243;-69
2024/04/25 06:45:20;;;;;;;8.90;4.70;;;;;;;17.21;61.74;99652.98;106177;1260;61435;-68
2024/04/25 06:47:48;;;;;;;383.80;197.30;;;;;;;17.24;62.04;99653.89;105247;1258;67856;-68
2024/04/25 06:50:16;;;;;;;152.60;68.30;;;;;;;17.66;77.41;99659.27;106697;1254;63729;-64
2024/04/25 06:52:44;;;;;;;24.80;13.40;;;;;;;17.76;74.11;99663.07;105827;1258;65989;-60
2024/04/25 06:55:12;;;;;;;9.20;4.70;;;;;;;17.59;72.65;99670.58;105146;1261;61341;-65
2024/04/25 06:57:39;;;;;;;18.10;8.00;;;;;;;17.51;72.35;99677.06;106179;1258;61267;-65
2024/04/25 07:00:07;;;;;;;29.60;13.50;;;;;;;17.51;72.21;99682.55;106117;1254;68730;-66
2024/04/25 07:02:37;;;;;;;32.60;12.20;;;;;;;17.55;72.14;99686.52;106089;1259;71110;-66
2024/04/25 07:05:05;;;;;;;13.40;6.30;;;;;;;17.61;72.40;99685.77;106169;1256;65893;-67
2024/04/25 07:07:33;;;;;;;56.90;18.80;;;;;;;17.71;72.68;99688.92;105919;1257;60401;-66
2024/04/25 07:10:01;;;;;;;18.20;7.40;;;;;;;17.82;72.78;99689.02;106027;1253;61270;-66
2024/04/25 07:12:32;;;;;;;16.00;7.20;;;;;;;17.96;72.23;99685.39;105980;1253;64718;-63
2024/04/25 07:15:06;;;;;;;10.80;3.00;;;;;;;18.10;70.74;99686.24;107130;1255;71895;-64
2024/04/25 07:17:34;;;;;;;6.80;3.00;;;;;;;18.18;69.12;99691.85;105446;1255;75210;-62
2024/04/25 07:20:03;;;;;;;8.20;2.80;;;;;;;18.26;67.63;99694.14;105434;1259;62483;-59
2024/04/25 07:22:32;;;;;;;8.60;3.10;;;;;;;18.34;66.15;99697.70;105394;1259;61304;-62
2024/04/25 07:25:00;;;;;;;11.90;4.80;;;;;;;18.43;64.83;99700.28;104985;1258;66038;-63
2024/04/25 07:27:27;;;;;;;29.80;10.00;;;;;;;18.53;63.46;99697.27;104950;1254;64177;-61
2024/04/25 07:30:01;;;;;;;30.80;13.70;;;;;;;18.66;62.35;99692.29;109045;1253;62602;-61
2024/04/25 07:32:29;;;;;;;11.40;3.90;;;;;;;18.81;61.30;99691.23;109113;1253;58960;-59
2024/04/25 07:34:56;;;;;;;5.80;2.20;;;;;;;18.93;60.33;99692.98;109133;1254;62202;-63
2024/04/25 07:37:25;;;;;;;4.80;2.10;;;;;;;19.00;59.51;99692.52;109058;1254;66285;-62
2024/04/25 07:39:53;;;;;;;5.90;2.30;;;;;;;19.09;58.78;99687.66;109057;1253;61988;-63
2024/04/25 07:42:20;;;;;;;5.60;2.70;;;;;;;19.20;58.25;99688.22;108942;1253;74852;-65
2024/04/25 07:44:48;;;;;;;5.10;2.50;;;;;;;19.28;57.63;99688.23;105906;1254;61394;-61
2024/04/25 07:47:16;;;;;;;7.40;2.50;;;;;;;19.34;56.87;99685.40;104944;1253;62191;-61
2024/04/25 07:49:43;;;;;;;8.20;2.60;;;;;;;19.38;56.45;99685.95;105045;1259;66242;-59
2024/04/25 07:52:11;;;;;;;7.80;3.40;;;;;;;19.46;55.82;99682.79;105152;1254;71398;-59
2024/04/25 07:54:38;;;;;;;5.90;2.30;;;;;;;19.54;55.62;99679.25;105124;1253;62584;-59
2024/04/25 07:57:06;;;;;;;5.30;2.20;;;;;;;19.59;55.21;99677.05;105072;1254;61258;-58
2024/04/25 07:59:34;;;;;;;7.90;2.20;;;;;;;19.64;54.86;99678.30;105420;1258;61158;-60
2024/04/25 08:02:01;;;;;;;5.50;2.60;;;;;;;19.70;54.17;99679.11;105531;1254;67941;-60
2024/04/25 08:04:29;;;;;;;4.20;2.20;;;;;;;19.76;54.06;99681.46;109061;1257;60274;-61
2024/04/25 08:06:57;;;;;;;6.30;2.60;;;;;;;19.83;53.51;99676.19;105416;1260;75026;-60
2024/04/25 08:09:25;;;;;;;5.80;2.40;;;;;;;19.86;53.23;99676.53;105050;1254;61318;-61
2024/04/25 08:11:53;;;;;;;6.00;2.30;;;;;;;19.87;53.14;99672.31;105902;1255;61366;-60
2024/04/25 08:14:21;;;;;;;23.90;18.50;;;;;;;19.87;52.95;99674.32;105952;1257;67964;-63
2024/04/25 08:16:49;;;;;;;5.50;1.80;;;;;;;19.89;52.82;99671.04;105147;1253;61837;-61
2024/04/25 08:19:16;;;;;;;6.10;2.00;;;;;;;19.91;52.36;99674.36;105040;1253;66058;-61
2024/04/25 08:21:44;;;;;;;6.60;2.70;;;;;;;19.88;52.29;99676.12;105148;1253;61377;-62
2024/04/25 08:24:13;;;;;;;7.50;2.30;;;;;;;19.88;52.48;99675.21;105293;1254;61231;-60
2024/04/25 08:26:41;;;;;;;4.50;1.90;;;;;;;19.94;52.49;99669.86;105222;1259;77298;-59
2024/04/25 08:29:09;;;;;;;5.90;2.00;;;;;;;19.98;51.99;99670.73;105235;1254;71761;-60
2024/04/25 08:31:37;;;;;;;4.60;1.70;;;;;;;20.01;51.68;99670.45;105877;1260;74914;-61
2024/04/25 08:34:04;;;;;;;4.90;2.10;;;;;;;20.09;51.47;99670.92;105418;1254;61381;-61
2024/04/25 08:36:32;;;;;;;7.00;2.50;;;;;;;20.15;51.55;99671.14;105501;1253;61295;-63
2024/04/25 08:38:59;;;;;;;7.00;2.00;;;;;;;20.23;51.52;99671.73;105153;1258;66882;-61
2024/04/25 08:41:28;;;;;;;4.90;1.90;;;;;;;20.33;51.21;99676.83;105111;1254;72327;-61
2024/04/25 08:43:57;;;;;;;7.40;2.20;;;;;;;20.41;51.03;99673.23;107208;1253;66046;-61
2024/04/25 08:46:26;;;;;;;4.30;2.20;;;;;;;20.46;51.11;99670.64;105653;1258;59845;-59
2024/04/25 08:48:56;;;;;;;4.40;2.00;;;;;;;20.51;50.99;99667.14;105085;1253;61352;-59
2024/04/25 08:51:25;;;;;;;5.80;2.30;;;;;;;20.58;50.65;99665.30;105933;1255;68039;-56
2024/04/25 08:53:55;;;;;;;5.50;2.10;;;;;;;20.63;50.49;99661.56;105406;1253;72407;-58
2024/04/25 08:56:22;;;;;;;3.80;1.70;;;;;;;20.70;50.43;99661.21;105592;1255;73964;-57
2024/04/25 08:58:50;;;;;;;5.50;2.00;;;;;;;20.76;50.42;99660.58;105812;1253;62686;-63
2024/04/25 09:01:18;;;;;;;5.10;2.00;;;;;;;20.81;50.29;99660.30;105055;1259;61267;-61
2024/04/25 09:03:48;;;;;;;5.90;2.30;;;;;;;20.85;50.32;99657.23;105052;1258;77344;-60
2024/04/25 09:06:15;;;;;;;5.20;2.00;;;;;;;20.92;50.01;99657.35;109110;1253;71347;-64
2024/04/25 09:08:43;;;;;;;6.90;2.30;;;;;;;21.01;50.04;99659.77;108124;1254;62570;-61
2024/04/25 09:11:21;;;;;;;5.40;2.20;;;;;;;21.08;49.77;99660.37;105486;1255;61373;-56
2024/04/25 09:13:53;;;;;;;4.40;1.80;;;;;;;21.13;49.50;99662.12;108264;1254;270237;-62
2024/04/25 09:17:35;;;;;;;5.30;2.00;;;;;;;20.71;50.18;99662.50;102311;1295;601096;-63
2024/04/25 09:20:07;;;;;;;6.90;2.50;;;;;;;20.98;49.27;99665.27;105113;1261;59736;-61
2024/04/25 09:22:37;;;;;;;7.90;2.30;;;;;;;21.00;49.39;99661.73;105163;1263;59689;-60
2024/04/25 09:25:08;;;;;;;5.50;2.50;;;;;;;20.97;48.93;99663.77;105084;1264;66289;-63
2024/04/25 09:27:36;;;;;;;4.90;1.90;;;;;;;20.94;48.85;99663.11;104879;1257;63694;-61
2024/04/25 09:30:04;;;;;;;6.60;2.00;;;;;;;20.97;49.01;99664.38;105808;1262;211174;-61
2024/04/25 09:32:32;;;;;;;3.90;1.60;;;;;;;21.05;48.58;99663.67;106947;1257;59720;-63
2024/04/25 09:34:59;;;;;;;5.60;2.20;;;;;;;21.10;48.08;99661.35;105511;1262;59564;-61
2024/04/25 09:37:31;;;;;;;4.30;1.70;;;;;;;21.12;47.96;99658.55;104842;1257;66607;-63
2024/04/25 09:39:59;;;;;;;6.50;2.00;;;;;;;21.13;47.58;99661.59;105329;1258;71624;-62
2024/04/25 09:42:34;;;;;;;5.40;1.90;;;;;;;21.13;47.45;99666.48;106026;1261;66445;-61
2024/04/25 09:45:02;;;;;;;6.50;2.30;;;;;;;21.13;47.62;99671.77;105082;1260;60878;-60
2024/04/25 09:47:35;;;;;;;4.70;1.80;;;;;;;21.15;47.78;99670.69;105041;1256;60319;-63
2024/04/25 09:50:11;;;;;;;5.10;1.80;;;;;;;21.14;48.01;99665.25;105059;1260;76024;-63
2024/04/25 09:52:43;;;;;;;4.10;1.60;;;;;;;21.17;48.06;99664.02;105203;1260;62509;-65
2024/04/25 09:55:14;;;;;;;4.90;1.80;;;;;;;21.19;47.85;99661.32;105203;1258;64459;-64
2024/04/25 09:57:41;;;;;;;5.80;2.10;;;;;;;21.23;47.92;99656.55;106012;1257;62298;-63
2024/04/25 10:00:10;;;;;;;4.60;2.20;;;;;;;21.30;48.01;99649.73;105991;1261;60466;-63
2024/04/25 10:02:37;;;;;;;4.90;2.00;;;;;;;21.40;48.25;99648.66;106028;1260;67056;-63
2024/04/25 10:05:05;;;;;;;6.90;2.10;;;;;;;21.52;48.13;99644.39;106251;1258;60414;-62
2024/04/25 10:07:33;;;;;;;6.10;2.10;;;;;;;21.65;47.85;99637.92;106403;1252;73416;-62
2024/04/25 10:10:00;;;;;;;5.00;1.80;;;;;;;21.77;47.48;99633.66;105474;1257;62957;-60
2024/04/25 10:12:28;;;;;;;5.10;1.60;;;;;;;21.86;46.98;99629.33;105313;1253;61009;-63
2024/04/25 10:15:00;;;;;;;4.50;1.80;;;;;;;21.90;46.52;99623.95;105417;1257;65661;-62
2024/04/25 10:17:29;;;;;;;8.90;1.70;;;;;;;21.97;46.18;99618.38;106063;1257;60414;-59
2024/04/25 10:20:00;;;;;;;7.00;1.80;;;;;;;22.04;46.27;99620.23;105716;1251;63041;-62
2024/04/25 10:22:27;;;;;;;4.60;1.70;;;;;;;22.11;46.09;99621.00;106542;1254;60360;-62
2024/04/25 10:24:59;;;;;;;6.00;1.80;;;;;;;22.20;46.15;99620.11;105742;1251;60549;-62
2024/04/25 10:27:27;;;;;;;6.00;2.00;;;;;;;22.29;46.08;99620.19;106155;1251;76065;-57
2024/04/25 10:30:05;;;;;;;4.90;1.80;;;;;;;22.38;45.68;99617.58;105820;1254;62281;-59
2024/04/25 10:32:33;;;;;;;4.00;1.70;;;;;;;22.45;45.73;99616.52;106599;1253;63861;-59
2024/04/25 10:35:01;;;;;;;5.00;2.00;;;;;;;22.54;45.41;99616.56;106570;1256;60803;-59
2024/04/25 10:37:35;;;;;;;7.50;2.10;;;;;;;22.61;45.30;99609.23;105381;1251;62209;-58
2024/04/25 10:40:03;;;;;;;4.30;1.80;;;;;;;22.70;45.31;99608.06;105784;1254;67560;-59
2024/04/25 10:42:30;;;;;;;7.00;1.40;;;;;;;22.76;44.76;99601.80;105794;1257;71388;-57
2024/04/25 10:44:58;;;;;;;7.00;1.70;;;;;;;22.81;44.78;99604.83;105850;1256;62871;-59
2024/04/25 10:47:25;;;;;;;5.00;1.50;;;;;;;22.91;44.72;99604.16;105364;1251;60585;-59
2024/04/25 10:49:54;;;;;;;4.10;1.80;;;;;;;23.03;44.30;99605.44;105354;1253;60453;-59
2024/04/25 10:52:22;;;;;;;5.20;2.00;;;;;;;23.16;44.02;99598.77;105916;1252;67090;-59
2024/04/25 10:54:49;;;;;;;6.60;2.80;;;;;;;23.31;44.42;99597.73;105252;1252;71035;-58
2024/04/25 10:57:17;;;;;;;10.40;2.30;;;;;;;23.47;44.22;99598.44;105291;1254;65956;-57
2024/04/25 10:59:44;;;;;;;9.30;2.40;;;;;;;23.65;44.32;99598.54;105403;1255;61329;-63
2024/04/25 11:02:12;;;;;;;7.10;2.40;;;;;;;23.77;43.74;99589.84;105368;1254;60451;-54
2024/04/25 11:04:41;;;;;;;5.50;1.80;;;;;;;23.84;43.44;99586.50;106298;1251;76065;-54
2024/04/25 11:07:10;;;;;;;6.20;2.30;;;;;;;23.89;43.10;99575.83;107160;1253;62177;-58
2024/04/25 11:09:38;;;;;;;6.30;1.90;;;;;;;23.92;42.79;99569.09;107208;1256;66351;-59
2024/04/25 11:12:06;;;;;;;5.10;1.70;;;;;;;23.92;42.56;99573.09;105285;1251;60540;-55
2024/04/25 11:14:38;;;;;;;4.50;1.70;;;;;;;23.94;43.23;99573.27;109302;1252;58273;-54
2024/04/25 11:17:05;;;;;;;6.60;2.10;;;;;;;23.98;43.28;99573.70;109345;1251;67187;-56
2024/04/25 11:19:33;;;;;;;5.60;1.90;;;;;;;24.02;43.14;99568.19;109366;1251;62018;-56
2024/04/25 11:22:15;;;;;;;7.20;2.00;;;;;;;24.07;43.04;99562.52;109314;1251;74940;-57
2024/04/25 11:25:12;;;;;;;7.60;2.00;;;;;;;24.17;42.42;99559.27;109330;1254;58372;-55
2024/04/25 11:27:39;;;;;;;4.00;1.70;;;;;;;24.24;42.66;99555.25;109367;1253;58527;-58
2024/04/25 11:30:07;;;;;;;4.10;1.60;;;;;;;24.36;42.60;99553.64;109349;1253;66195;-58
2024/04/25 11:32:34;;;;;;;5.50;2.10;;;;;;;24.46;42.25;99548.59;109287;1253;60560;-58
2024/04/25 11:35:08;;;;;;;6.40;1.80;;;;;;;24.52;41.32;99545.66;109303;1251;64192;-62
2024/04/25 11:37:36;;;;;;;4.20;2.00;;;;;;;24.59;41.30;99546.37;109369;1251;58719;-58